Time;durP1;ratioP1;P1;durP2;ratioP2;P2;SDS_P1;SDS_P2;PMS_P1;PMS_P2;Temp;Humidity;BMP_temperature;BMP_pressure;BME280_temperature;BME280_humidity;BME280_pressure;Samples;Min_cycle;Max_cycle;Signal;HPM_P1;HPM_P2
2024/03/22 00:00:25;;;;;;;11.18;8.63;;;10.90;99.40;;;;;;4990426;28;20058;-71
2024/03/22 00:03:11;;;;;;;12.00;8.52;;;10.90;99.40;;;;;;4981439;28;20065;-72
2024/03/22 00:05:57;;;;;;;12.70;9.27;;;10.90;99.40;;;;;;5054441;28;20540;-71
2024/03/22 00:08:43;;;;;;;12.88;8.93;;;11.00;99.40;;;;;;4983709;28;20147;-71
2024/03/22 00:11:29;;;;;;;12.35;8.82;;;10.90;99.30;;;;;;5065136;28;20042;-71
2024/03/22 00:14:15;;;;;;;12.48;8.88;;;11.00;99.30;;;;;;4972544;28;20468;-71
2024/03/22 00:17:01;;;;;;;11.40;9.07;;;10.90;99.30;;;;;;4972223;28;20107;-69
2024/03/22 00:19:47;;;;;;;13.77;8.75;;;10.90;99.30;;;;;;4985944;28;20411;-70
2024/03/22 00:22:33;;;;;;;10.50;8.82;;;10.80;99.30;;;;;;4984568;28;20042;-69
2024/03/22 00:25:19;;;;;;;11.90;8.60;;;10.80;99.30;;;;;;4984892;28;20048;-69
2024/03/22 00:28:05;;;;;;;11.48;8.98;;;10.80;99.40;;;;;;4991123;28;20058;-70
2024/03/22 00:30:51;;;;;;;11.73;8.63;;;10.80;99.40;;;;;;5023091;28;20480;-70
2024/03/22 00:33:37;;;;;;;12.13;8.95;;;10.90;99.40;;;;;;4998985;28;20055;-70
2024/03/22 00:36:23;;;;;;;11.10;8.27;;;10.90;99.40;;;;;;4972938;28;20046;-70
2024/03/22 00:39:09;;;;;;;14.80;10.00;;;10.90;99.40;;;;;;4978001;28;20042;-70
2024/03/22 00:41:55;;;;;;;11.07;9.02;;;10.90;99.50;;;;;;4982606;28;20042;-70
2024/03/22 00:44:41;;;;;;;11.75;9.07;;;10.90;99.50;;;;;;4972412;28;20047;-70
2024/03/22 00:47:27;;;;;;;11.48;8.82;;;11.00;99.50;;;;;;4985206;28;20068;-70
2024/03/22 00:50:13;;;;;;;11.82;9.07;;;10.90;99.50;;;;;;4989548;28;20499;-70
2024/03/22 00:52:59;;;;;;;12.82;8.63;;;10.90;99.50;;;;;;4986293;28;20050;-70
2024/03/22 00:55:50;;;;;;;12.32;8.63;;;10.90;99.50;;;;;;5013535;28;20062;-70
2024/03/22 00:58:36;;;;;;;12.52;9.13;;;11.00;99.50;;;;;;4981254;28;20042;-71
2024/03/22 01:01:22;;;;;;;13.68;9.70;;;11.00;99.50;;;;;;4989624;28;20049;-70
2024/03/22 01:04:09;;;;;;;13.57;9.02;;;11.00;99.50;;;;;;4989223;28;20061;-70
2024/03/22 01:06:54;;;;;;;12.88;8.57;;;11.00;99.50;;;;;;4978958;28;20027;-70
2024/03/22 01:09:41;;;;;;;13.63;9.43;;;11.00;99.50;;;;;;4970490;28;20047;-70
2024/03/22 01:12:27;;;;;;;12.40;9.18;;;11.00;99.50;;;;;;4981074;28;20531;-71
2024/03/22 01:15:15;;;;;;;12.88;9.38;;;11.00;99.50;;;;;;5004428;28;20526;-72
2024/03/22 01:18:00;;;;;;;13.07;9.38;;;10.90;99.50;;;;;;4974419;28;20051;-71
2024/03/22 01:20:46;;;;;;;13.50;9.63;;;10.90;99.50;;;;;;4983228;28;20039;-72
2024/03/22 01:23:32;;;;;;;13.27;9.55;;;11.00;99.60;;;;;;4991097;28;20113;-72
2024/03/22 01:26:18;;;;;;;13.98;9.68;;;10.90;99.60;;;;;;4976289;28;20051;-72
2024/03/22 01:29:04;;;;;;;11.90;9.13;;;10.80;99.80;;;;;;4977768;28;20066;-71
2024/03/22 01:31:51;;;;;;;13.38;9.98;;;10.90;99.70;;;;;;4986213;28;20406;-71
2024/03/22 01:34:37;;;;;;;14.82;10.00;;;10.90;99.70;;;;;;4975100;28;20043;-71
2024/03/22 01:37:23;;;;;;;14.30;9.93;;;10.90;99.70;;;;;;4984621;28;20057;-71
2024/03/22 01:40:10;;;;;;;15.98;10.85;;;10.80;99.70;;;;;;4969354;28;20082;-71
2024/03/22 01:42:56;;;;;;;14.65;10.13;;;10.90;99.80;;;;;;4993041;28;20062;-72
2024/03/22 01:45:42;;;;;;;13.57;10.07;;;10.90;99.90;;;;;;4993456;28;20026;-72
2024/03/22 01:48:28;;;;;;;15.02;9.80;;;10.90;99.90;;;;;;4974164;28;20112;-72
2024/03/22 01:51:14;;;;;;;15.13;9.60;;;10.90;99.90;;;;;;4971385;28;20050;-72
2024/03/22 01:54:03;;;;;;;13.27;10.10;;;10.90;99.90;;;;;;4972689;28;20097;-72
2024/03/22 01:56:49;;;;;;;15.40;10.30;;;10.90;99.90;;;;;;4982642;28;20042;-72
2024/03/22 01:59:35;;;;;;;14.23;8.98;;;10.90;99.90;;;;;;4987315;28;20054;-72
2024/03/22 02:02:21;;;;;;;15.45;10.35;;;10.90;99.90;;;;;;4969556;28;20050;-71
2024/03/22 02:05:15;;;;;;;14.35;10.48;;;10.90;99.90;;;;;;4980616;28;20047;-71
2024/03/22 02:08:01;;;;;;;15.55;10.07;;;10.90;99.90;;;;;;4986373;28;20042;-71
2024/03/22 02:10:47;;;;;;;14.80;10.07;;;10.90;99.90;;;;;;4977444;28;20486;-71
2024/03/22 02:13:33;;;;;;;13.80;9.68;;;10.90;99.90;;;;;;4987080;28;20492;-70
2024/03/22 02:16:19;;;;;;;15.07;10.60;;;10.90;99.90;;;;;;4984449;28;20050;-71
2024/03/22 02:19:05;;;;;;;15.32;10.40;;;10.90;99.90;;;;;;4982316;28;20058;-71
2024/03/22 02:21:50;;;;;;;15.90;10.50;;;10.90;99.90;;;;;;4982585;28;20513;-71
2024/03/22 02:24:36;;;;;;;15.18;10.45;;;10.90;99.90;;;;;;4982756;28;20062;-71
2024/03/22 02:27:22;;;;;;;16.67;10.80;;;10.90;99.90;;;;;;4970455;28;20406;-71
2024/03/22 02:30:09;;;;;;;13.38;9.25;;;10.90;99.90;;;;;;4976401;28;20097;-70
2024/03/22 02:32:55;;;;;;;16.80;10.48;;;10.90;99.90;;;;;;4969938;28;20042;-70
2024/03/22 02:35:40;;;;;;;15.63;10.10;;;10.90;99.90;;;;;;4978291;28;20030;-70
2024/03/22 02:38:26;;;;;;;15.82;10.30;;;10.80;99.90;;;;;;5039380;28;20073;-69
2024/03/22 02:41:12;;;;;;;14.57;10.20;;;10.80;99.90;;;;;;4983998;28;20126;-70
2024/03/22 02:43:58;;;;;;;15.80;10.55;;;10.80;99.90;;;;;;4989120;28;20566;-70
2024/03/22 02:46:44;;;;;;;15.80;9.85;;;10.80;99.90;;;;;;4988094;28;20509;-70
2024/03/22 02:49:30;;;;;;;15.05;9.10;;;10.80;99.90;;;;;;4984880;28;20521;-70
2024/03/22 02:52:16;;;;;;;15.50;9.20;;;10.80;99.90;;;;;;4972874;28;20505;-69
2024/03/22 02:55:02;;;;;;;14.63;9.75;;;10.80;99.90;;;;;;4975332;28;20514;-70
2024/03/22 02:57:49;;;;;;;15.73;10.52;;;10.80;99.90;;;;;;4971776;28;20243;-70
2024/03/22 03:00:38;;;;;;;15.45;10.05;;;10.80;99.90;;;;;;4982682;28;20043;-70
2024/03/22 03:03:24;;;;;;;15.68;10.00;;;10.80;99.90;;;;;;4969915;28;20035;-70
2024/03/22 03:06:10;;;;;;;20.33;11.07;;;10.80;99.90;;;;;;4981327;28;20100;-70
2024/03/22 03:08:56;;;;;;;14.27;8.82;;;10.90;99.90;;;;;;4973121;28;20050;-70
2024/03/22 03:11:42;;;;;;;19.88;11.07;;;10.80;99.90;;;;;;4983566;28;20548;-70
2024/03/22 03:14:28;;;;;;;15.30;10.23;;;10.80;99.90;;;;;;4984435;28;20042;-70
2024/03/22 03:17:14;;;;;;;17.67;9.77;;;10.80;99.90;;;;;;4983075;28;20034;-70
2024/03/22 03:19:59;;;;;;;14.82;8.90;;;10.80;99.90;;;;;;4973525;28;20119;-70
2024/03/22 03:22:45;;;;;;;12.60;9.43;;;10.80;99.90;;;;;;5049071;28;20453;-70
2024/03/22 03:25:31;;;;;;;16.65;10.30;;;10.90;99.90;;;;;;5033687;28;20105;-70
2024/03/22 03:28:18;;;;;;;15.02;9.30;;;10.90;99.90;;;;;;5065498;28;20131;-68
2024/03/22 03:31:04;;;;;;;11.85;8.02;;;10.90;99.90;;;;;;4987937;28;20486;-70
2024/03/22 03:33:50;;;;;;;13.80;8.77;;;10.80;99.90;;;;;;4987050;28;20078;-70
2024/03/22 03:36:36;;;;;;;15.60;9.38;;;10.80;99.90;;;;;;4977007;28;20043;-71
2024/03/22 03:39:22;;;;;;;13.10;9.75;;;10.70;99.90;;;;;;5041163;28;20047;-71
2024/03/22 03:42:08;;;;;;;14.95;9.15;;;10.80;99.90;;;;;;4974052;28;20573;-71
2024/03/22 03:44:54;;;;;;;14.82;9.57;;;10.70;99.90;;;;;;5048505;28;20126;-71
2024/03/22 03:47:40;;;;;;;14.23;10.05;;;10.70;99.90;;;;;;4990550;28;20057;-71
2024/03/22 03:50:26;;;;;;;14.80;9.10;;;10.70;99.90;;;;;;4982751;28;20090;-71
2024/03/22 03:53:12;;;;;;;15.32;9.60;;;10.70;99.90;;;;;;4980733;28;20042;-71
2024/03/22 03:55:58;;;;;;;13.75;8.60;;;10.80;99.90;;;;;;4979067;28;20555;-71
2024/03/22 03:58:46;;;;;;;15.73;10.82;;;10.80;99.90;;;;;;4989962;28;20124;-71
2024/03/22 04:01:32;;;;;;;14.95;9.50;;;10.80;99.90;;;;;;4991680;28;20077;-71
2024/03/22 04:04:18;;;;;;;13.40;8.82;;;10.80;99.90;;;;;;4978899;28;20050;-71
2024/03/22 04:07:04;;;;;;;17.25;9.35;;;10.80;99.90;;;;;;4981499;28;20563;-71
2024/03/22 04:09:50;;;;;;;14.68;9.52;;;10.80;99.90;;;;;;4976417;28;20415;-71
2024/03/22 04:12:36;;;;;;;17.10;9.60;;;10.80;99.90;;;;;;4991229;28;20043;-72
2024/03/22 04:15:22;;;;;;;14.25;9.55;;;10.80;99.90;;;;;;5016643;28;20048;-72
2024/03/22 04:18:08;;;;;;;14.45;9.57;;;10.80;99.90;;;;;;4992183;28;20050;-72
2024/03/22 04:20:58;;;;;;;13.93;9.65;;;10.80;99.90;;;;;;4974687;28;20070;-70
2024/03/22 04:23:44;;;;;;;14.23;9.70;;;10.80;99.90;;;;;;4991313;28;20046;-70
2024/03/22 04:26:31;;;;;;;14.30;9.13;;;10.80;99.90;;;;;;5024494;28;20049;-70
2024/03/22 04:29:17;;;;;;;16.25;10.20;;;10.70;99.90;;;;;;4979181;28;20399;-71
2024/03/22 04:32:04;;;;;;;17.40;9.80;;;10.70;99.90;;;;;;4989967;28;20046;-71
2024/03/22 04:34:50;;;;;;;13.88;8.68;;;10.80;99.90;;;;;;4979044;28;20402;-70
2024/03/22 04:37:36;;;;;;;16.52;9.35;;;10.70;99.90;;;;;;4975653;28;20043;-70
2024/03/22 04:40:22;;;;;;;13.73;9.18;;;10.70;99.90;;;;;;4981821;28;20053;-70
2024/03/22 04:43:08;;;;;;;13.82;9.30;;;10.70;99.90;;;;;;4989262;28;20047;-70
2024/03/22 04:45:54;;;;;;;14.60;9.20;;;10.70;99.90;;;;;;4990567;28;20543;-70
2024/03/22 04:48:40;;;;;;;14.88;9.43;;;10.70;99.90;;;;;;5041506;28;20085;-70
2024/03/22 04:51:26;;;;;;;13.85;9.02;;;10.70;99.90;;;;;;4974961;28;20055;-70
2024/03/22 04:54:12;;;;;;;16.90;10.20;;;10.70;99.90;;;;;;4986384;28;20058;-71
2024/03/22 04:56:59;;;;;;;14.23;9.57;;;10.70;99.90;;;;;;4991040;28;20121;-71
2024/03/22 04:59:45;;;;;;;14.77;9.13;;;10.70;99.90;;;;;;4988708;28;20054;-70
2024/03/22 05:02:31;;;;;;;15.13;8.98;;;10.70;99.90;;;;;;4971646;28;20031;-70
2024/03/22 05:05:17;;;;;;;13.23;8.57;;;10.70;99.90;;;;;;5088650;28;20495;-70
2024/03/22 05:08:03;;;;;;;13.48;9.32;;;10.70;99.90;;;;;;4982273;28;20089;-71
2024/03/22 05:10:49;;;;;;;14.32;8.68;;;10.70;99.90;;;;;;4985298;28;20059;-70
2024/03/22 05:13:35;;;;;;;14.57;8.98;;;10.70;99.90;;;;;;4982446;28;20095;-71
2024/03/22 05:16:23;;;;;;;18.83;9.63;;;10.70;99.90;;;;;;4989784;28;20057;-72
2024/03/22 05:19:09;;;;;;;15.40;8.90;;;10.80;99.90;;;;;;4987201;28;20118;-72
2024/03/22 05:21:55;;;;;;;15.00;9.95;;;10.70;99.90;;;;;;4997020;28;20043;-78
2024/03/22 05:24:42;;;;;;;13.38;9.30;;;10.70;99.90;;;;;;4984835;28;20042;-80
2024/03/22 05:27:27;;;;;;;15.90;10.07;;;10.80;99.90;;;;;;4972745;28;20050;-79
2024/03/22 05:30:14;;;;;;;16.25;10.32;;;10.80;99.90;;;;;;4982757;28;20180;-75
2024/03/22 05:33:00;;;;;;;15.68;10.52;;;10.80;99.90;;;;;;5041401;28;20031;-73
2024/03/22 05:35:46;;;;;;;16.25;9.80;;;10.80;99.90;;;;;;4974215;28;20044;-72
2024/03/22 05:38:32;;;;;;;16.00;10.30;;;10.80;99.90;;;;;;5002425;28;20040;-74
2024/03/22 05:41:18;;;;;;;16.98;10.52;;;10.80;99.90;;;;;;5019546;28;20040;-73
2024/03/22 05:44:04;;;;;;;13.38;9.60;;;10.80;99.90;;;;;;4988527;28;20423;-73
2024/03/22 05:46:50;;;;;;;15.80;10.00;;;10.80;99.90;;;;;;4986191;28;20073;-73
2024/03/22 05:49:36;;;;;;;15.88;9.88;;;10.90;99.90;;;;;;4970302;28;20051;-73
2024/03/22 05:52:22;;;;;;;16.70;10.00;;;10.90;99.90;;;;;;5031586;28;20043;-73
2024/03/22 05:55:08;;;;;;;17.20;10.35;;;10.90;99.90;;;;;;4991271;28;20073;-74
2024/03/22 05:57:54;;;;;;;16.42;10.25;;;10.90;99.90;;;;;;4992032;28;20038;-74
2024/03/22 06:00:40;;;;;;;19.65;10.23;;;10.90;99.90;;;;;;5002452;28;20055;-73
2024/03/22 06:03:26;;;;;;;15.95;11.30;;;11.00;99.90;;;;;;5048238;28;20071;-74
2024/03/22 06:06:12;;;;;;;15.63;9.88;;;11.10;99.90;;;;;;4978926;28;20080;-73
2024/03/22 06:09:00;;;;;;;14.20;10.15;;;11.10;99.90;;;;;;4968188;28;20057;-73
2024/03/22 06:11:46;;;;;;;14.43;9.25;;;11.10;99.70;;;;;;5004727;28;20029;-73
2024/03/22 06:14:32;;;;;;;15.63;9.45;;;11.10;99.70;;;;;;5050666;28;20480;-73
2024/03/22 06:17:18;;;;;;;19.42;9.70;;;11.20;99.80;;;;;;4982855;28;20110;-74
2024/03/22 06:20:05;;;;;;;16.38;9.90;;;11.20;99.70;;;;;;4969507;28;20559;-73
2024/03/22 06:22:51;;;;;;;15.55;9.40;;;11.30;99.60;;;;;;4987557;28;20026;-73
2024/03/22 06:25:37;;;;;;;13.95;9.13;;;11.30;99.60;;;;;;5016066;28;20121;-73
2024/03/22 06:28:23;;;;;;;14.18;9.30;;;11.30;99.60;;;;;;4976559;28;20107;-73
2024/03/22 06:31:09;;;;;;;14.05;8.95;;;11.30;99.70;;;;;;4982666;28;20042;-74
2024/03/22 06:34:01;;;;;;;17.02;9.57;;;11.30;99.40;;;;;;5087962;28;20044;-74
2024/03/22 06:36:47;;;;;;;12.93;8.88;;;11.40;99.40;;;;;;4974315;28;20463;-74
2024/03/22 06:39:33;;;;;;;14.38;8.50;;;11.40;99.30;;;;;;4972874;28;20046;-74
2024/03/22 06:42:19;;;;;;;13.30;9.60;;;11.40;99.30;;;;;;4987044;28;20076;-72
2024/03/22 06:45:05;;;;;;;16.42;9.30;;;11.40;99.30;;;;;;4988208;28;20069;-74
2024/03/22 06:47:51;;;;;;;15.25;9.40;;;11.40;99.30;;;;;;4982117;28;20039;-74
2024/03/22 06:50:37;;;;;;;15.35;9.48;;;11.50;99.30;;;;;;5047173;28;20075;-75
2024/03/22 06:53:23;;;;;;;13.70;9.32;;;11.50;99.30;;;;;;4994710;28;20121;-73
2024/03/22 06:56:11;;;;;;;16.50;9.93;;;11.50;99.20;;;;;;4968664;28;20051;-72
2024/03/22 06:58:58;;;;;;;15.63;9.82;;;11.60;99.20;;;;;;5040277;28;20177;-74
2024/03/22 07:01:44;;;;;;;17.23;9.88;;;11.60;99.10;;;;;;5002249;28;20048;-73
2024/03/22 07:04:30;;;;;;;16.75;9.90;;;11.60;99.10;;;;;;4969079;28;20461;-73
2024/03/22 07:07:16;;;;;;;16.13;9.88;;;11.60;99.00;;;;;;4984054;28;20072;-73
2024/03/22 07:10:03;;;;;;;19.15;11.30;;;11.70;99.00;;;;;;4983657;28;20523;-73
2024/03/22 07:12:49;;;;;;;16.83;10.48;;;11.70;99.00;;;;;;4994563;28;20045;-73
2024/03/22 07:15:35;;;;;;;15.60;10.57;;;11.70;98.90;;;;;;4988194;28;20095;-71
2024/03/22 07:18:20;;;;;;;17.77;10.35;;;11.80;98.90;;;;;;4969323;28;20537;-71
2024/03/22 07:21:07;;;;;;;16.25;10.20;;;11.80;99.10;;;;;;4984060;28;21079;-69
2024/03/22 07:23:53;;;;;;;17.65;10.45;;;11.80;98.90;;;;;;4978290;28;20113;-68
2024/03/22 07:26:39;;;;;;;19.85;10.77;;;11.90;98.90;;;;;;4978440;28;20039;-69
2024/03/22 07:29:25;;;;;;;17.70;10.18;;;11.90;98.90;;;;;;4995415;28;20046;-70
2024/03/22 07:32:10;;;;;;;14.45;9.80;;;11.90;98.80;;;;;;4985534;28;20047;-69
2024/03/22 07:34:56;;;;;;;19.50;10.95;;;12.00;98.80;;;;;;5055421;28;20565;-69
2024/03/22 07:37:42;;;;;;;15.48;10.43;;;12.00;98.70;;;;;;4969464;28;20554;-69
2024/03/22 07:40:28;;;;;;;18.75;11.82;;;12.10;98.70;;;;;;4976666;28;20034;-70
2024/03/22 07:43:16;;;;;;;21.08;12.27;;;12.10;98.70;;;;;;5064468;28;20028;-72
2024/03/22 07:46:02;;;;;;;17.23;10.60;;;12.10;98.70;;;;;;4971186;28;20030;-73
2024/03/22 07:48:48;;;;;;;18.88;11.45;;;12.10;98.60;;;;;;4984059;28;20059;-73
2024/03/22 07:51:34;;;;;;;17.95;11.57;;;12.20;98.60;;;;;;4990817;28;20042;-73
2024/03/22 07:54:20;;;;;;;16.38;11.60;;;12.30;98.60;;;;;;4990072;28;20062;-74
2024/03/22 07:57:06;;;;;;;20.10;11.48;;;12.30;98.60;;;;;;4989594;28;20034;-73
2024/03/22 07:59:52;;;;;;;19.10;11.75;;;12.30;98.60;;;;;;4989922;28;20050;-73
2024/03/22 08:02:38;;;;;;;18.10;11.45;;;12.30;98.60;;;;;;4984867;28;20120;-73
2024/03/22 08:05:24;;;;;;;18.80;12.52;;;12.40;98.50;;;;;;4984347;28;20477;-73
2024/03/22 08:08:10;;;;;;;23.52;13.20;;;12.50;98.50;;;;;;4977713;28;20503;-74
2024/03/22 08:10:56;;;;;;;16.85;11.25;;;12.50;98.40;;;;;;4971929;28;20039;-73
2024/03/22 08:13:42;;;;;;;20.20;11.52;;;12.60;98.40;;;;;;4985302;28;20042;-73
2024/03/22 08:16:29;;;;;;;22.23;11.95;;;12.60;98.40;;;;;;4992779;28;20061;-73
2024/03/22 08:19:15;;;;;;;20.85;12.38;;;12.60;98.30;;;;;;4977800;28;20043;-73
2024/03/22 08:22:01;;;;;;;21.05;12.02;;;12.70;98.40;;;;;;4977880;28;20491;-74
2024/03/22 08:24:48;;;;;;;18.15;12.10;;;12.80;98.30;;;;;;5018025;28;20428;-71
2024/03/22 08:27:34;;;;;;;23.52;11.68;;;12.80;98.30;;;;;;4972372;28;20065;-71
2024/03/22 08:30:20;;;;;;;17.85;12.50;;;12.80;98.20;;;;;;4986228;28;20054;-74
2024/03/22 08:33:06;;;;;;;24.20;12.43;;;12.90;98.20;;;;;;5065861;28;20507;-71
2024/03/22 08:35:52;;;;;;;19.42;12.25;;;12.90;98.10;;;;;;5037889;28;20137;-71
2024/03/22 08:38:38;;;;;;;20.38;12.93;;;12.90;98.10;;;;;;4990103;28;20048;-70
2024/03/22 08:41:24;;;;;;;19.70;12.02;;;13.00;98.00;;;;;;5009080;28;20038;-70
2024/03/22 08:44:10;;;;;;;17.05;12.32;;;13.10;97.90;;;;;;5028689;28;20050;-70
2024/03/22 08:46:55;;;;;;;18.38;11.70;;;13.00;97.90;;;;;;4990499;28;20038;-70
2024/03/22 08:49:43;;;;;;;17.88;12.63;;;13.10;97.80;;;;;;4992799;28;20088;-70
2024/03/22 08:52:31;;;;;;;17.10;11.38;;;13.10;97.80;;;;;;4985059;28;20463;-70
2024/03/22 08:55:17;;;;;;;19.13;12.02;;;13.20;97.80;;;;;;5008383;28;20038;-71
2024/03/22 08:58:04;;;;;;;17.92;11.73;;;13.20;97.80;;;;;;4976167;28;20122;-71
2024/03/22 09:00:50;;;;;;;19.77;12.73;;;13.30;97.70;;;;;;4975850;28;20564;-71
2024/03/22 09:03:39;;;;;;;17.80;11.68;;;13.30;97.60;;;;;;4989110;28;20118;-71
2024/03/22 09:06:25;;;;;;;17.17;11.90;;;13.40;97.60;;;;;;5042123;28;20058;-70
2024/03/22 09:09:11;;;;;;;17.90;11.80;;;13.40;97.50;;;;;;4982885;28;20104;-71
2024/03/22 09:11:57;;;;;;;19.98;12.55;;;13.50;97.50;;;;;;4971570;28;20179;-71
2024/03/22 09:14:44;;;;;;;21.55;12.60;;;13.50;97.40;;;;;;4983484;28;20046;-70
2024/03/22 09:17:30;;;;;;;18.58;11.57;;;13.60;97.40;;;;;;4973310;28;20050;-71
2024/03/22 09:20:16;;;;;;;17.65;12.65;;;13.70;97.40;;;;;;4982065;28;20126;-71
2024/03/22 09:23:01;;;;;;;16.73;11.68;;;13.80;97.40;;;;;;4979808;28;20134;-70
2024/03/22 09:25:47;;;;;;;15.95;10.85;;;13.90;97.30;;;;;;4973787;28;20051;-71
2024/03/22 09:28:33;;;;;;;18.27;12.95;;;14.00;97.20;;;;;;4987456;28;20050;-71
2024/03/22 09:31:19;;;;;;;20.80;13.15;;;14.10;97.10;;;;;;4982506;28;20053;-70
2024/03/22 09:34:05;;;;;;;17.08;11.23;;;14.20;97.00;;;;;;4970286;28;20077;-70
2024/03/22 09:36:51;;;;;;;17.65;11.05;;;14.20;96.90;;;;;;4974269;28;20039;-70
2024/03/22 09:39:37;;;;;;;18.77;12.60;;;14.30;96.80;;;;;;4969696;28;20031;-70
2024/03/22 09:42:25;;;;;;;17.80;10.82;;;14.30;96.70;;;;;;4971349;28;20085;-73
2024/03/22 09:45:11;;;;;;;16.27;10.48;;;14.50;96.60;;;;;;5003283;28;20100;-70
2024/03/22 09:47:58;;;;;;;15.85;10.98;;;14.50;96.50;;;;;;5013105;28;20035;-70
2024/03/22 09:50:46;;;;;;;16.05;9.98;;;14.60;96.40;;;;;;5056328;28;20067;-70
2024/03/22 09:53:32;;;;;;;17.85;9.98;;;14.70;96.30;;;;;;5011805;28;20352;-70
2024/03/22 09:56:21;;;;;;;16.70;9.52;;;14.70;96.20;;;;;;4976570;28;20135;-70
2024/03/22 09:59:07;;;;;;;16.23;10.52;;;14.70;96.10;;;;;;4989251;28;20058;-70
2024/03/22 10:01:53;;;;;;;14.43;10.10;;;14.80;96.00;;;;;;5001762;28;20464;-69
2024/03/22 10:04:40;;;;;;;15.88;10.68;;;14.80;95.90;;;;;;5057132;28;20037;-69
2024/03/22 10:07:26;;;;;;;16.45;9.88;;;14.80;95.80;;;;;;4997458;28;20168;-69
2024/03/22 10:10:15;;;;;;;14.32;10.05;;;14.90;95.80;;;;;;4983288;28;20064;-69
2024/03/22 10:13:03;;;;;;;15.52;10.50;;;15.00;95.70;;;;;;4979313;28;20478;-69
2024/03/22 10:15:48;;;;;;;14.57;9.85;;;15.00;95.60;;;;;;4980631;28;20047;-70
2024/03/22 10:18:34;;;;;;;18.20;9.98;;;15.10;95.60;;;;;;4978799;28;20039;-70
2024/03/22 10:21:21;;;;;;;15.07;9.00;;;15.10;95.50;;;;;;4976506;28;20030;-69
2024/03/22 10:24:07;;;;;;;13.98;9.18;;;15.10;95.40;;;;;;4990137;28;20054;-69
2024/03/22 10:26:53;;;;;;;14.10;9.23;;;15.20;95.30;;;;;;4969827;28;20057;-70
2024/03/22 10:29:39;;;;;;;15.70;10.23;;;15.20;95.30;;;;;;4974051;28;20050;-70
2024/03/22 10:32:28;;;;;;;14.32;9.18;;;15.20;95.20;;;;;;4977610;28;20068;-70
2024/03/22 10:35:15;;;;;;;16.55;10.30;;;15.30;95.00;;;;;;4977743;28;20517;-71
2024/03/22 10:38:01;;;;;;;16.25;10.00;;;15.30;95.00;;;;;;4985958;28;20043;-69
2024/03/22 10:40:48;;;;;;;14.48;9.93;;;15.40;95.00;;;;;;4983178;28;20053;-70
2024/03/22 10:43:35;;;;;;;16.05;10.05;;;15.40;95.00;;;;;;4970942;28;20039;-70
2024/03/22 10:46:24;;;;;;;15.73;10.18;;;15.40;94.90;;;;;;4977689;28;20085;-70
2024/03/22 10:49:16;;;;;;;16.00;10.35;;;15.60;94.90;;;;;;4978567;28;20054;-70
2024/03/22 10:52:04;;;;;;;16.63;9.63;;;15.70;94.80;;;;;;4984391;28;20048;-70
2024/03/22 10:54:51;;;;;;;15.57;10.05;;;15.80;94.80;;;;;;4970044;28;20491;-69
2024/03/22 10:57:38;;;;;;;15.50;9.70;;;15.90;94.70;;;;;;4984344;28;20046;-69
2024/03/22 11:00:31;;;;;;;15.40;9.60;;;16.00;94.60;;;;;;4973589;28;20487;-70
2024/03/22 11:03:24;;;;;;;15.23;9.75;;;16.10;94.50;;;;;;4988297;28;20035;-69
2024/03/22 11:06:10;;;;;;;15.02;10.43;;;16.20;94.40;;;;;;4984872;28;20073;-69
2024/03/22 11:09:01;;;;;;;13.15;8.25;;;16.30;94.30;;;;;;4978848;28;20055;-70
2024/03/22 11:11:47;;;;;;;15.85;9.30;;;16.30;94.20;;;;;;4971823;28;20520;-70
2024/03/22 11:14:33;;;;;;;19.75;9.27;;;16.40;94.10;;;;;;5040227;28;20050;-71
2024/03/22 11:17:19;;;;;;;13.27;8.75;;;16.50;94.00;;;;;;4975379;28;20046;-70
2024/03/22 11:20:05;;;;;;;13.55;8.57;;;16.50;93.80;;;;;;4969080;28;20046;-70
2024/03/22 11:22:52;;;;;;;11.30;7.70;;;16.60;93.70;;;;;;4979160;28;20050;-70
2024/03/22 11:25:38;;;;;;;15.35;9.13;;;16.60;93.50;;;;;;4968067;28;20051;-70
2024/03/22 11:28:24;;;;;;;17.08;9.10;;;16.60;93.50;;;;;;4984188;28;20431;-71
2024/03/22 11:31:10;;;;;;;13.57;8.18;;;16.60;93.40;;;;;;4983872;28;20498;-71
2024/03/22 11:33:56;;;;;;;14.18;8.77;;;16.60;93.30;;;;;;4982431;28;20042;-70
2024/03/22 11:36:42;;;;;;;12.00;8.02;;;16.60;93.20;;;;;;5011235;28;20049;-70
2024/03/22 11:39:28;;;;;;;13.50;8.63;;;16.50;93.10;;;;;;4993714;28;20178;-70
2024/03/22 11:42:15;;;;;;;15.30;8.73;;;16.40;93.10;;;;;;5038251;28;20476;-71
2024/03/22 11:45:02;;;;;;;11.35;7.38;;;16.40;93.10;;;;;;4972614;28;20043;-71
2024/03/22 11:47:48;;;;;;;12.15;8.68;;;16.30;93.10;;;;;;5036209;28;20044;-70
2024/03/22 11:50:35;;;;;;;18.30;8.95;;;16.20;93.10;;;;;;5026904;28;20058;-70
2024/03/22 11:53:22;;;;;;;15.07;8.70;;;16.10;93.10;;;;;;4980693;28;20062;-70
2024/03/22 11:56:08;;;;;;;12.07;8.05;;;16.10;93.10;;;;;;4983404;28;20038;-70
2024/03/22 11:59:01;;;;;;;13.27;8.43;;;16.00;93.30;;;;;;4987870;28;20133;-70
2024/03/22 12:01:47;;;;;;;13.15;7.53;;;16.00;93.30;;;;;;4990791;28;20046;-70
2024/03/22 12:04:33;;;;;;;12.85;8.80;;;15.90;93.40;;;;;;5029069;28;20163;-70
2024/03/22 12:07:19;;;;;;;13.77;8.25;;;15.90;93.50;;;;;;4983422;28;20157;-70
2024/03/22 12:10:06;;;;;;;14.15;8.88;;;15.80;93.60;;;;;;4982592;28;20434;-70
2024/03/22 12:12:53;;;;;;;13.38;8.98;;;15.80;93.80;;;;;;5007746;28;20077;-71
2024/03/22 12:15:39;;;;;;;12.27;8.30;;;15.70;94.00;;;;;;4985744;28;20058;-73
2024/03/22 12:18:25;;;;;;;16.38;9.32;;;15.70;94.20;;;;;;5043787;28;20126;-70
2024/03/22 12:21:11;;;;;;;14.30;9.30;;;15.60;94.40;;;;;;4987712;28;20038;-70
2024/03/22 12:23:57;;;;;;;18.17;9.32;;;15.60;94.70;;;;;;4973738;28;20047;-70
2024/03/22 12:26:43;;;;;;;15.85;9.88;;;15.50;94.90;;;;;;4982147;28;20042;-70
2024/03/22 12:29:31;;;;;;;16.35;9.45;;;15.50;95.30;;;;;;4989028;28;20141;-70
2024/03/22 12:32:18;;;;;;;14.57;8.95;;;15.50;95.40;;;;;;4984575;28;20114;-70
2024/03/22 12:35:04;;;;;;;17.40;9.32;;;15.40;95.60;;;;;;4995915;28;20180;-71
2024/03/22 12:37:50;;;;;;;16.15;9.95;;;15.30;95.80;;;;;;4984073;28;20042;-70
2024/03/22 12:40:37;;;;;;;17.52;10.38;;;15.30;95.90;;;;;;4971542;28;20140;-71
2024/03/22 12:43:23;;;;;;;16.02;10.70;;;15.20;96.20;;;;;;4978689;28;20038;-70
2024/03/22 12:46:09;;;;;;;17.95;10.02;;;15.20;96.40;;;;;;4979917;28;20039;-70
2024/03/22 12:48:55;;;;;;;17.13;9.75;;;15.10;96.60;;;;;;4981286;28;20051;-71
2024/03/22 12:51:41;;;;;;;18.17;9.93;;;15.10;96.90;;;;;;4973833;28;20043;-70
2024/03/22 12:54:27;;;;;;;15.15;10.25;;;15.10;97.00;;;;;;4990042;28;20534;-71
2024/03/22 12:57:13;;;;;;;15.20;9.43;;;15.00;97.20;;;;;;5025782;28;20464;-70
2024/03/22 12:59:59;;;;;;;16.48;11.13;;;15.00;97.40;;;;;;4984103;28;20413;-73
2024/03/22 13:02:46;;;;;;;13.55;9.35;;;15.00;97.70;;;;;;4986127;28;20399;-71
2024/03/22 13:05:32;;;;;;;16.83;9.80;;;15.00;97.90;;;;;;4982784;28;20357;-70
2024/03/22 13:08:19;;;;;;;18.10;10.75;;;14.90;98.00;;;;;;4987353;28;20046;-70
2024/03/22 13:11:08;;;;;;;16.77;10.73;;;14.90;98.10;;;;;;5027420;28;20050;-70
2024/03/22 13:13:54;;;;;;;16.08;10.30;;;14.90;98.20;;;;;;4985797;28;20483;-70
2024/03/22 13:16:40;;;;;;;17.52;11.52;;;14.90;98.20;;;;;;4980088;28;20050;-71
2024/03/22 13:19:26;;;;;;;15.48;9.57;;;14.80;98.20;;;;;;4985241;28;20125;-71
2024/03/22 13:22:12;;;;;;;16.45;9.82;;;14.80;98.20;;;;;;4982750;28;20047;-70
2024/03/22 13:24:58;;;;;;;15.70;9.35;;;14.70;98.30;;;;;;4974475;28;20070;-71
2024/03/22 13:27:44;;;;;;;15.40;9.27;;;14.70;98.40;;;;;;4989226;28;20125;-70
2024/03/22 13:30:31;;;;;;;14.88;9.00;;;14.70;98.50;;;;;;4983909;28;20072;-70
2024/03/22 13:33:17;;;;;;;15.20;9.15;;;14.70;98.60;;;;;;4986089;28;20034;-71
2024/03/22 13:36:04;;;;;;;15.18;9.25;;;14.70;98.60;;;;;;4990411;28;20054;-67
2024/03/22 13:38:50;;;;;;;16.48;8.82;;;14.70;98.60;;;;;;5002150;28;20039;-67
2024/03/22 13:41:36;;;;;;;13.38;8.73;;;14.70;98.60;;;;;;4977202;28;20053;-68
2024/03/22 13:44:22;;;;;;;13.55;8.63;;;14.70;98.60;;;;;;4989708;28;20118;-68
2024/03/22 13:47:08;;;;;;;14.48;9.20;;;14.70;98.70;;;;;;4988800;28;20043;-67
2024/03/22 13:49:54;;;;;;;11.98;7.85;;;14.70;98.60;;;;;;4989246;28;20501;-68
2024/03/22 13:52:40;;;;;;;13.13;8.45;;;14.70;98.60;;;;;;4971173;28;20433;-68
2024/03/22 13:55:26;;;;;;;12.75;7.85;;;14.70;98.60;;;;;;4978900;28;20054;-67
2024/03/22 13:58:12;;;;;;;11.73;8.07;;;14.60;98.60;;;;;;4980915;28;20096;-68
2024/03/22 14:01:00;;;;;;;12.70;8.65;;;14.60;98.70;;;;;;4984432;28;20672;-68
2024/03/22 14:03:46;;;;;;;17.83;8.85;;;14.70;98.80;;;;;;4979238;28;20039;-68
2024/03/22 14:06:33;;;;;;;14.00;8.88;;;14.70;99.00;;;;;;4988979;28;20435;-68
2024/03/22 14:09:19;;;;;;;13.18;8.52;;;14.70;99.20;;;;;;5070453;28;20109;-68